< < Back
Terminal Aerodrome Forecast


Current Version              Previous Versions:   1  2  3  4  5  6  7  8  9  

Terminal Aerodrome Forecast

345
FTUS44 KMRX 191121
TAFCHA
TAF
KCHA 191121Z 1912/2012 02003KT P6SM SCT045
     FM191500 01006KT P6SM FEW050 BKN200
     FM200100 VRB03KT P6SM BKN100
     FM200800 VRB03KT 5SM -SHRA BR BKN025 OVC050=



Latest METAR

680
SAUS80 KWBC 200900
MTRCHA
METAR KCHA 200853Z AUTO 03004KT 10SM BKN065 OVC095 04/01 A3016 RMK AO2
RAB20E53 SLP214 P0000 60000 T00440006 58001


USA.gov is the U.S. government's official web portal to all federal, state and local government web resources and services.